Language: 


Des rapports , des résumés tant et plus, au choix de chacun....


Données statistiques de la station
Quotidien Rapport Janvier 8, 2017 Unités:  Anglais    Métrique   les deux
« Précédent Jour
Suivant Jour »
Quotidien Hebdomadaire Mensuel Annuel Actuel
  Haut: Bas: Moyen:
Température: 47.8 °F 32 °F 43.9 °F
Pt de rosée: 47.1 °F 39 °F 43.3 °F
Humidité: 98 % 0 % 97 %
Vitesse du vent: 4.3 mph 0 mph 0.5 mph
Rafales: 9.6 mph - -
Vent:- - SW
Pression: 30.4 in 0 in -
Précipitation: 0 in    
Historical Graphs
 
 
Données statistiques pour Janvier 8, 2017
Heure Température Point de rosée Pression Vent Vitesse du vent Refales Humidité Pluie (taux horaire)
00:04 39.9 °F 39.4 °F 30.4 in Calm   2.5 mph 98 % 0 in
00:09 40.1 °F 39.6 °F 30.4 in Calm   2.5 mph 98 % 0 in
00:14 39.9 °F 39.4 °F 30.4 in Calm     98 % 0 in
00:19 39.7 °F 39.2 °F 30.4 in Calm     98 % 0 in
00:24 39.6 °F 39 °F 30.4 in Calm     98 % 0 in
00:29 39.6 °F 39 °F 30.4 in Calm     98 % 0 in
00:34 39.7 °F 39.2 °F 30.4 in Calm     98 % 0 in
00:39 40.1 °F 39.6 °F 30.4 in Calm     98 % 0 in
00:45 40.3 °F 39.7 °F 30.4 in Calm   1.1 mph 98 % 0 in
00:50 40.6 °F 40.1 °F 30.4 in Calm   2.7 mph 98 % 0 in
00:55 41.9 °F 41.4 °F 30.4 in Calm   4.7 mph 98 % 0 in
01:00 42.4 °F 41.9 °F 30.4 in Calm   4.7 mph 98 % 0 in
01:05 43.2 °F 42.6 °F 30.4 in NW 3.8 mph 4.3 mph 98 % 0 in
01:10 43.3 °F 42.8 °F 30.4 in NW 3.1 mph 4.7 mph 98 % 0 in
01:15 43.9 °F 43.3 °F 30.4 in Calm   5.6 mph 98 % 0 in
01:20 43.9 °F 43.3 °F 30.4 in Calm   5.6 mph 98 % 0 in
01:25 43.9 °F 43.3 °F 30.4 in Calm   3.6 mph 98 % 0 in
01:30 44.1 °F 43.5 °F 30.4 in North 2 mph 3.1 mph 98 % 0 in
01:35 44.2 °F 43.5 °F 30.4 in North 4 mph 9.6 mph 98 % 0 in
01:40 44.2 °F 43.5 °F 30.4 in North 2 mph 9.6 mph 98 % 0 in
01:45 44.2 °F 43.5 °F 30.4 in Calm   2.9 mph 98 % 0 in
01:50 44.2 °F 43.5 °F 30.4 in Calm   1.6 mph 98 % 0 in
01:55 44.2 °F 43.5 °F 30.4 in Calm   1.1 mph 98 % 0 in
02:02 32 °F 43.5 °F 0 in Calm     0 % 0 in
02:07 43.9 °F 43.3 °F 30.4 in Calm   2 mph 98 % 0 in
02:12 43.5 °F 43 °F 30.4 in Calm   2 mph 98 % 0 in
02:17 43.3 °F 42.8 °F 30.4 in Calm   0.9 mph 98 % 0 in
02:22 43 °F 42.4 °F 30.4 in Calm     98 % 0 in
02:27 42.1 °F 41.5 °F 30.4 in Calm     98 % 0 in
02:32 41.5 °F 41 °F 30.4 in Calm     98 % 0 in
02:37 41 °F 40.5 °F 30.4 in Calm     98 % 0 in
02:42 40.6 °F 40.1 °F 30.4 in Calm     98 % 0 in
02:47 41 °F 40.5 °F 30.4 in West 1.3 mph 4 mph 98 % 0 in
02:52 41 °F 40.5 °F 30.4 in West 2.2 mph 4 mph 98 % 0 in
02:57 41 °F 40.5 °F 30.4 in West 3.4 mph 3.6 mph 98 % 0 in
03:02 41 °F 40.5 °F 30.4 in West 2.5 mph 4.3 mph 98 % 0 in
03:07 41.4 °F 40.8 °F 30.4 in Calm   4.2 mph 98 % 0 in
03:12 41.4 °F 40.8 °F 30.4 in Calm   3.6 mph 98 % 0 in
03:17 41 °F 40.5 °F 30.4 in Calm     98 % 0 in
03:22 41 °F 40.5 °F 30.4 in West 3.1 mph 3.8 mph 98 % 0 in
03:27 41 °F 40.5 °F 30.4 in West 2.9 mph 3.8 mph 98 % 0 in
03:32 40.8 °F 40.3 °F 30.4 in West 2.7 mph 4.3 mph 98 % 0 in
03:37 40.8 °F 40.3 °F 30.4 in Calm   4.3 mph 98 % 0 in
03:42 40.5 °F 39.9 °F 30.4 in West 2.5 mph 3.6 mph 98 % 0 in
03:47 40.8 °F 40.3 °F 30.4 in Calm   3.6 mph 98 % 0 in
03:52 40.8 °F 40.3 °F 30.4 in Calm   3.4 mph 98 % 0 in
03:57 41 °F 40.5 °F 30.4 in Calm     98 % 0 in
04:02 40.8 °F 40.3 °F 30.4 in Calm     98 % 0 in
04:07 40.5 °F 39.9 °F 30.4 in West 2.2 mph 2.2 mph 98 % 0 in
04:12 40.3 °F 39.7 °F 30.4 in Calm   2.7 mph 98 % 0 in
04:17 40.1 °F 39.6 °F 30.4 in West 3.8 mph 4 mph 98 % 0 in
04:22 40.1 °F 39.6 °F 30.4 in West 2.7 mph 4 mph 98 % 0 in
04:27 40.1 °F 39.6 °F 30.4 in Calm   3.8 mph 98 % 0 in
04:32 40.6 °F 40.1 °F 30.4 in West 3.8 mph 4.3 mph 98 % 0 in
04:37 41 °F 40.5 °F 30.4 in West 3.6 mph 4.3 mph 98 % 0 in
04:42 41.2 °F 40.6 °F 30.4 in West 2 mph 4.3 mph 98 % 0 in
04:47 41 °F 40.5 °F 30.4 in West 2.9 mph 4.3 mph 98 % 0 in
04:57 41 °F 40.5 °F 30.4 in Calm   4.9 mph 98 % 0 in
05:02 41.2 °F 40.6 °F 30.4 in West 1.3 mph 4.9 mph 98 % 0 in
05:07 41.4 °F 40.8 °F 30.4 in WNW 2.9 mph 4.7 mph 98 % 0 in
05:12 41.5 °F 41 °F 30.4 in West 2.5 mph 4.3 mph 98 % 0 in
05:17 41.5 °F 41 °F 30.4 in West 3.1 mph 4.3 mph 98 % 0 in
05:22 41.9 °F 41.4 °F 30.4 in WNW 2.9 mph 4 mph 98 % 0 in
05:27 42.1 °F 41.5 °F 30.4 in Calm   4 mph 98 % 0 in
05:32 42.1 °F 41.5 °F 30.4 in West 2 mph 4 mph 98 % 0 in
05:37 42.3 °F 41.7 °F 30.4 in West 2.5 mph 3.8 mph 98 % 0 in
05:42 42.3 °F 41.7 °F 30.4 in Calm   3.8 mph 98 % 0 in
05:47 42.3 °F 41.7 °F 30.4 in West 2.2 mph 2.2 mph 98 % 0 in
05:52 42.3 °F 41.7 °F 30.4 in Calm   3.1 mph 98 % 0 in
05:57 42.4 °F 41.9 °F 30.4 in Calm   3.6 mph 98 % 0 in
06:02 42.6 °F 42.1 °F 30.4 in West 0.9 mph 4 mph 98 % 0 in
06:12 42.8 °F 42.3 °F 30.4 in Calm   3.1 mph 98 % 0 in
06:17 42.8 °F 42.3 °F 30.4 in Calm   2.9 mph 98 % 0 in
06:22 42.8 °F 42.3 °F 30.4 in Calm   2.5 mph 98 % 0 in
06:27 42.8 °F 42.3 °F 30.4 in Calm     98 % 0 in
06:32 42.8 °F 42.3 °F 30.4 in Calm   0.9 mph 98 % 0 in
06:37 42.8 °F 42.3 °F 30.4 in Calm   0.9 mph 98 % 0 in
06:42 42.4 °F 41.9 °F 30.4 in Calm     98 % 0 in
06:52 42.1 °F 41.5 °F 30.4 in Calm   3.1 mph 98 % 0 in
06:57 42.1 °F 41.5 °F 30.4 in Calm     98 % 0 in
07:02 41.7 °F 41.2 °F 30.4 in Calm     98 % 0 in
07:12 41.5 °F 41 °F 30.4 in WSW 4 mph 4.3 mph 98 % 0 in
07:22 41.9 °F 41.4 °F 30.4 in West 3.4 mph 4.3 mph 98 % 0 in
07:27 42.3 °F 41.7 °F 30.4 in Calm   3.6 mph 98 % 0 in
07:32 42.1 °F 41.5 °F 30.4 in Calm   3.6 mph 98 % 0 in
07:37 42.1 °F 41.5 °F 30.4 in Calm     98 % 0 in
07:48 42.6 °F 42.1 °F 30.4 in Calm     98 % 0 in
07:53 42.6 °F 42.1 °F 30.4 in Calm     98 % 0 in
08:02 42.6 °F 42.1 °F 30.4 in Calm   2.2 mph 98 % 0 in
08:08 42.3 °F 41.7 °F 30.4 in Calm   2 mph 98 % 0 in
08:12 42.3 °F 41.7 °F 30.4 in Calm     98 % 0 in
08:18 41.9 °F 41.4 °F 30.4 in Calm     98 % 0 in
08:23 41.9 °F 41.4 °F 30.4 in West 2.5 mph 2.7 mph 98 % 0 in
08:28 42.1 °F 41.5 °F 30.4 in Calm   2.7 mph 98 % 0 in
08:33 42.3 °F 41.7 °F 30.4 in Calm   2.5 mph 98 % 0 in
08:38 42.3 °F 41.7 °F 30.4 in Calm   1.3 mph 98 % 0 in
08:43 42.3 °F 41.7 °F 30.4 in Calm   2.9 mph 98 % 0 in
08:48 42.3 °F 41.7 °F 30.4 in Calm   2.9 mph 98 % 0 in
08:53 42.4 °F 41.9 °F 30.4 in Calm   2.9 mph 98 % 0 in
08:58 42.3 °F 41.7 °F 30.4 in Calm   2.9 mph 98 % 0 in
09:03 42.3 °F 41.7 °F 30.4 in Calm     98 % 0 in
09:08 42.3 °F 41.7 °F 30.4 in Calm     98 % 0 in
09:13 42.3 °F 41.7 °F 30.4 in Calm     98 % 0 in
09:18 42.3 °F 41.7 °F 30.4 in Calm     98 % 0 in
09:23 42.3 °F 41.7 °F 30.4 in Calm     98 % 0 in
09:28 42.4 °F 41.9 °F 30.4 in Calm     98 % 0 in
09:33 42.6 °F 42.1 °F 30.4 in Calm     98 % 0 in
09:38 42.6 °F 42.1 °F 30.4 in Calm     98 % 0 in
09:48 43 °F 42.4 °F 30.4 in Calm     98 % 0 in
09:53 43.2 °F 42.6 °F 30.4 in Calm     98 % 0 in
09:58 43.2 °F 42.6 °F 30.4 in Calm     98 % 0 in
10:03 43.3 °F 42.8 °F 30.4 in Calm     98 % 0 in
10:08 43.3 °F 42.8 °F 30.4 in Calm     98 % 0 in
10:13 43.3 °F 42.8 °F 30.4 in Calm     98 % 0 in
10:18 43.5 °F 43 °F 30.4 in Calm     98 % 0 in
10:23 43.5 °F 43.2 °F 30.4 in Calm     98 % 0 in
10:28 43.9 °F 43.3 °F 30.4 in Calm     98 % 0 in
10:33 44.1 °F 43.5 °F 30.4 in Calm     98 % 0 in
10:38 44.2 °F 43.9 °F 30.4 in Calm     98 % 0 in
10:43 44.8 °F 44.2 °F 30.4 in Calm     98 % 0 in
10:48 45.1 °F 44.4 °F 30.4 in Calm     98 % 0 in
10:53 45.3 °F 45 °F 30.4 in Calm     98 % 0 in
10:58 45.7 °F 45.1 °F 30.4 in Calm     98 % 0 in
11:03 45.9 °F 45.1 °F 30.4 in Calm     98 % 0 in
11:08 46 °F 45.7 °F 30.4 in Calm     98 % 0 in
11:13 46 °F 45.7 °F 30.4 in Calm   3.1 mph 98 % 0 in
11:18 46.6 °F 45.9 °F 30.4 in Calm   3.1 mph 98 % 0 in
11:23 46.6 °F 46 °F 30.4 in Calm     98 % 0 in
11:33 47.1 °F 46.6 °F 30.4 in Calm     98 % 0 in
11:38 47.3 °F 46.8 °F 30.4 in Calm     98 % 0 in
11:43 47.5 °F 46.9 °F 30.4 in Calm     98 % 0 in
11:48 47.7 °F 47.1 °F 30.4 in Calm     98 % 0 in
11:53 47.7 °F 47.1 °F 30.4 in Calm     98 % 0 in
11:58 47.8 °F 47.1 °F 30.4 in Calm     97 % 0 in
12:03 47.7 °F 47.1 °F 30.4 in NE 2.7 mph 2.7 mph 98 % 0 in
12:08 47.5 °F 46.9 °F 30.4 in NNE 2.9 mph 3.6 mph 98 % 0 in
12:13 47.7 °F 47.1 °F 30.4 in NE 2 mph 3.6 mph 98 % 0 in
12:18 47.7 °F 47.1 °F 30.4 in NNE 2.2 mph 3.4 mph 98 % 0 in
12:23 47.7 °F 46.9 °F 30.4 in Calm   3.4 mph 97 % 0 in
12:28 47.7 °F 46.9 °F 30.4 in Calm   2.9 mph 97 % 0 in
12:33 47.8 °F 47.1 °F 30.4 in Calm   1.1 mph 97 % 0 in
12:38 47.8 °F 47.1 °F 30.4 in Calm   1.6 mph 97 % 0 in
12:43 47.8 °F 47.1 °F 30.4 in Calm   1.6 mph 97 % 0 in
12:48 47.8 °F 47.1 °F 30.4 in Calm     97 % 0 in
12:53 47.7 °F 46.9 °F 30.4 in SSE 4 mph 4 mph 97 % 0 in
12:58 47.5 °F 46.8 °F 30.4 in Calm   4 mph 97 % 0 in
13:03 47.3 °F 46.6 °F 30.4 in Calm   3.6 mph 97 % 0 in
13:08 47.3 °F 46.6 °F 30.4 in Calm   2.7 mph 97 % 0 in
13:13 47.3 °F 46.6 °F 30.4 in Calm   2.7 mph 97 % 0 in
13:18 47.1 °F 46.4 °F 30.4 in Calm     97 % 0 in
13:23 47.3 °F 46.6 °F 30.4 in Calm   1.1 mph 97 % 0 in
13:28 47.3 °F 46.6 °F 30.4 in Calm   1.1 mph 97 % 0 in
13:38 47.3 °F 46.6 °F 30.4 in Calm   3.6 mph 97 % 0 in
13:43 47.5 °F 46.8 °F 30.4 in Calm   2.5 mph 97 % 0 in
13:53 47.5 °F 46.8 °F 30.4 in Calm     97 % 0 in
13:58 47.5 °F 46.8 °F 30.4 in Calm     97 % 0 in
14:03 47.7 °F 46.9 °F 30.4 in Calm   2.9 mph 97 % 0 in
14:08 47.7 °F 46.9 °F 30.4 in South 2.7 mph 2.9 mph 97 % 0 in
14:16 47.5 °F 46.8 °F 30.4 in South 0.9 mph 3.6 mph 97 % 0 in
14:22 47.5 °F 46.8 °F 30.4 in South 2.7 mph 2.9 mph 97 % 0 in
14:30 47.5 °F 46.8 °F 30.4 in Calm   2.7 mph 97 % 0 in
14:53 47.5 °F 46.8 °F 30.4 in Calm     97 % 0 in
15:05 47.5 °F 46.8 °F 30.4 in Calm     97 % 0 in
15:29 47.3 °F 46.6 °F 30.4 in SW 2 mph 2.2 mph 97 % 0 in
15:34 47.1 °F 46.4 °F 30.4 in Calm   2.5 mph 97 % 0 in
15:39 47.1 °F 46.4 °F 30.4 in Calm   2.5 mph 97 % 0 in
15:44 47.1 °F 46.4 °F 30.4 in Calm     97 % 0 in
15:49 46.9 °F 46.2 °F 30.4 in Calm     97 % 0 in
15:59 46.9 °F 46.2 °F 30.4 in Calm     97 % 0 in
16:04 46.9 °F 46.2 °F 30.4 in Calm     97 % 0 in
16:09 46.8 °F 46 °F 30.4 in Calm     97 % 0 in
16:14 46.8 °F 46 °F 30.4 in Calm     97 % 0 in
16:19 46.8 °F 46 °F 30.4 in Calm     97 % 0 in
16:24 46.6 °F 45.9 °F 30.4 in Calm     97 % 0 in
16:29 46.6 °F 45.9 °F 30.4 in Calm     97 % 0 in
16:34 46.6 °F 45.7 °F 30.4 in Calm     97 % 0 in
16:39 46.6 °F 45.7 °F 30.4 in Calm     97 % 0 in
16:44 46.2 °F 45.5 °F 30.4 in Calm     97 % 0 in
16:49 46.2 °F 45.5 °F 30.4 in Calm     97 % 0 in
16:54 46 °F 45.3 °F 30.4 in Calm     97 % 0 in
16:59 46 °F 45.3 °F 30.4 in Calm     97 % 0 in
17:04 45.9 °F 45.1 °F 30.4 in Calm     97 % 0 in
17:09 45.9 °F 45.1 °F 30.4 in Calm     97 % 0 in
17:14 45.9 °F 45.1 °F 30.4 in Calm     97 % 0 in
17:19 45.9 °F 45 °F 30.4 in Calm     97 % 0 in
17:24 45.9 °F 45 °F 30.4 in Calm     97 % 0 in
17:29 45.7 °F 44.8 °F 30.4 in Calm     97 % 0 in
17:34 45.7 °F 44.8 °F 30.4 in Calm     97 % 0 in
17:39 45.7 °F 44.8 °F 30.4 in Calm     97 % 0 in
17:44 45.3 °F 44.6 °F 30.4 in Calm     97 % 0 in
17:49 45.7 °F 44.8 °F 30.4 in Calm   2 mph 97 % 0 in
17:54 45.7 °F 44.8 °F 30.4 in Calm   2.2 mph 97 % 0 in
17:59 45.7 °F 44.8 °F 30.4 in Calm   2.2 mph 97 % 0 in
18:09 45.3 °F 44.6 °F 30.4 in Calm     97 % 0 in
18:14 45.3 °F 44.6 °F 30.4 in Calm   2.9 mph 97 % 0 in
18:20 45.3 °F 44.6 °F 30.4 in Calm   2.9 mph 97 % 0 in
18:25 45.3 °F 44.6 °F 30.4 in Calm   2.9 mph 97 % 0 in
18:30 45.3 °F 44.6 °F 30.4 in Calm   3.6 mph 97 % 0 in
18:35 45.3 °F 44.6 °F 30.4 in Calm   3.6 mph 97 % 0 in
18:40 45.3 °F 44.6 °F 30.4 in South 2 mph 2.5 mph 97 % 0 in
18:45 45.1 °F 44.4 °F 30.4 in Calm   2.9 mph 97 % 0 in
18:50 45.1 °F 44.4 °F 30.4 in Calm   3.4 mph 97 % 0 in
18:55 45.1 °F 44.4 °F 30.4 in Calm   3.4 mph 97 % 0 in
19:00 45.1 °F 44.4 °F 30.4 in Calm     97 % 0 in
19:05 45.1 °F 44.2 °F 30.4 in Calm     97 % 0 in
19:10 45.1 °F 44.2 °F 30.4 in Calm     97 % 0 in
19:15 45.1 °F 44.2 °F 30.4 in Calm     97 % 0 in
19:20 45.1 °F 44.2 °F 30.4 in Calm     97 % 0 in
19:25 45 °F 44.1 °F 30.4 in Calm     97 % 0 in
19:30 45 °F 44.1 °F 30.4 in Calm     97 % 0 in
19:35 45 °F 44.1 °F 30.4 in Calm   0.9 mph 97 % 0 in
19:40 45 °F 44.1 °F 30.4 in Calm   0.9 mph 97 % 0 in
19:45 44.8 °F 43.9 °F 30.4 in Calm     97 % 0 in
19:50 44.8 °F 43.9 °F 30.4 in Calm     97 % 0 in
19:55 44.8 °F 43.9 °F 30.4 in Calm     97 % 0 in
20:00 44.8 °F 43.9 °F 30.4 in Calm     97 % 0 in
20:05 44.4 °F 43.7 °F 30.4 in Calm     97 % 0 in
20:10 44.4 °F 43.7 °F 30.4 in Calm     97 % 0 in
20:15 44.4 °F 43.7 °F 30.4 in Calm     97 % 0 in
20:20 44.2 °F 43.5 °F 30.4 in Calm   1.1 mph 97 % 0 in
20:21 44.2 °F 43.5 °F 30.4 in Calm   1.1 mph 97 % 0 in
20:26 44.2 °F 43.5 °F 30.4 in Calm   1.1 mph 97 % 0 in
20:31 44.2 °F 43.5 °F 30.4 in Calm     97 % 0 in
20:36 44.2 °F 43.5 °F 30.4 in Calm     97 % 0 in
20:41 44.2 °F 43.5 °F 30.4 in Calm     98 % 0 in
20:46 44.2 °F 43.5 °F 30.4 in Calm     98 % 0 in
20:51 44.1 °F 43.2 °F 30.4 in Calm     97 % 0 in
20:56 44.1 °F 43.2 °F 30.4 in Calm     97 % 0 in
21:01 44.1 °F 43.5 °F 30.4 in Calm     98 % 0 in
21:06 44.1 °F 43.5 °F 30.4 in Calm     98 % 0 in
21:11 44.1 °F 43.5 °F 30.4 in Calm   0.9 mph 98 % 0 in
21:16 44.1 °F 43.5 °F 30.4 in Calm   0.9 mph 98 % 0 in
21:21 44.1 °F 43.5 °F 30.4 in Calm     98 % 0 in
21:26 44.1 °F 43.5 °F 30.4 in Calm     98 % 0 in
21:31 44.1 °F 43.5 °F 30.4 in Calm   2.5 mph 98 % 0 in
21:36 44.1 °F 43.5 °F 30.4 in South 1.1 mph 2.5 mph 98 % 0 in
21:41 44.1 °F 43.5 °F 30.4 in Calm   2 mph 98 % 0 in
21:46 44.1 °F 43.5 °F 30.4 in Calm   2 mph 98 % 0 in
21:51 44.1 °F 43.5 °F 30.4 in Calm   2 mph 98 % 0 in
21:56 44.1 °F 43.5 °F 30.4 in Calm   2.5 mph 98 % 0 in
22:01 43.9 °F 43.3 °F 30.4 in Calm   2.5 mph 98 % 0 in
22:06 43.9 °F 43.3 °F 30.4 in Calm   2.5 mph 98 % 0 in
22:11 44.1 °F 43.5 °F 30.4 in Calm   2 mph 98 % 0 in
22:16 44.1 °F 43.5 °F 30.4 in South 2 mph 3.1 mph 98 % 0 in
22:21 44.1 °F 43.5 °F 30.4 in Calm   3.6 mph 98 % 0 in
22:26 44.1 °F 43.5 °F 30.4 in Calm   3.6 mph 98 % 0 in
22:31 43.9 °F 43.3 °F 30.4 in SSE 2.9 mph 2.9 mph 98 % 0 in
22:36 43.9 °F 43.3 °F 30.4 in South 2.7 mph 3.1 mph 98 % 0 in
22:41 43.9 °F 43.3 °F 30.4 in Calm   3.1 mph 98 % 0 in
22:51 43.5 °F 43.2 °F 30.4 in Calm     98 % 0 in
22:56 43.5 °F 43.2 °F 30.4 in SSW 2.7 mph 2.7 mph 98 % 0 in
23:01 43.5 °F 43 °F 30.4 in South 2.5 mph 3.6 mph 98 % 0 in
23:06 43.5 °F 43 °F 30.4 in SSW 3.6 mph 3.6 mph 98 % 0 in
23:11 43.5 °F 43 °F 30.4 in Calm   3.8 mph 98 % 0 in
23:16 43.5 °F 43 °F 30.4 in Calm   3.8 mph 98 % 0 in
23:21 43.5 °F 43 °F 30.4 in Calm   3.4 mph 98 % 0 in
23:26 43.5 °F 43 °F 30.4 in SW 4.3 mph 4.3 mph 98 % 0 in
23:31 43.5 °F 43 °F 30.4 in SSW 2.7 mph 4.3 mph 98 % 0 in
23:36 43.3 °F 42.8 °F 30.4 in Calm   4 mph 98 % 0 in
23:41 43.3 °F 42.8 °F 30.4 in Calm   2.2 mph 98 % 0 in
23:46 43.3 °F 42.8 °F 30.4 in SSW 1.3 mph 3.4 mph 98 % 0 in
23:51 43.2 °F 42.6 °F 30.4 in Calm   3.4 mph 98 % 0 in
23:56 43.2 °F 42.6 °F 30.4 in Calm   3.1 mph 98 % 0 in
Le Gheer Warneton
Courtoisie de Weather Underground - 2.25 mb

Mise a jour : 16-12-17 12:09:11
Généré par Cumulus 1.9.4 (1099)